createdAt,value
2018-11-22T00:01:46.378Z,42.60
2018-11-22T00:04:12.117Z,40.73
2018-11-22T00:06:21.832Z,41.70
2018-11-22T00:08:40.154Z,41.43
2018-11-22T00:11:06.799Z,41.00
2018-11-22T00:13:19.021Z,40.07
2018-11-22T00:15:33.165Z,40.57
2018-11-22T00:17:44.052Z,41.87
2018-11-22T00:19:56.734Z,41.87
2018-11-22T00:22:21.788Z,40.20
2018-11-22T00:24:31.593Z,40.77
2018-11-22T00:26:44.369Z,43.23
2018-11-22T00:28:54.688Z,41.10
2018-11-22T00:31:14.417Z,41.10
2018-11-22T00:33:23.503Z,40.83
2018-11-22T00:35:33.273Z,41.10
2018-11-22T00:37:54.238Z,41.30
2018-11-22T00:40:09.234Z,40.10
2018-11-22T00:42:42.843Z,40.70
2018-11-22T00:45:05.726Z,40.77
2018-11-22T00:47:18.777Z,41.23
2018-11-22T00:49:37.310Z,41.53
2018-11-22T00:51:58.785Z,43.07
2018-11-22T00:54:09.124Z,40.97
2018-11-22T00:56:20.844Z,41.30
2018-11-22T00:58:33.531Z,39.77
2018-11-22T01:00:46.181Z,42.50
2018-11-22T01:02:53.898Z,42.47
2018-11-22T01:05:05.926Z,41.90
2018-11-22T01:07:14.209Z,41.63
2018-11-22T01:09:27.410Z,41.07
2018-11-22T01:11:36.824Z,42.17
2018-11-22T01:13:50.710Z,42.37
2018-11-22T01:16:13.463Z,41.13
2018-11-22T01:18:26.090Z,41.83
2018-11-22T01:20:40.424Z,43.57
2018-11-22T01:28:03.369Z,42.80
2018-11-22T01:33:10.484Z,42.50
2018-11-22T01:35:30.042Z,41.77
2018-11-22T01:37:58.414Z,41.07
2018-11-22T01:40:46.191Z,41.87
2018-11-22T01:43:10.290Z,41.17
2018-11-22T01:45:28.922Z,43.13
2018-11-22T01:47:58.514Z,41.40
2018-11-22T01:50:37.378Z,41.60
2018-11-22T01:52:57.799Z,42.37
2018-11-22T01:55:24.704Z,42.80
2018-11-22T01:57:51.863Z,40.33
2018-11-22T02:00:08.291Z,42.97
2018-11-22T02:02:36.109Z,42.00
2018-11-22T02:05:03.949Z,39.73
2018-11-22T02:07:29.642Z,42.23
2018-11-22T02:10:06.074Z,41.90
2018-11-22T02:12:28.481Z,43.17
2018-11-22T02:17:10.868Z,41.10
2018-11-22T02:19:31.473Z,43.37
2018-11-22T02:29:25.562Z,42.37
2018-11-22T02:31:50.926Z,42.50
2018-11-22T02:34:10.438Z,41.37
2018-11-22T02:38:57.222Z,42.70
2018-11-22T02:41:21.509Z,42.47
2018-11-22T02:43:42.640Z,43.27
2018-11-22T02:48:48.259Z,41.83
2018-11-22T02:51:10.854Z,41.37
2018-11-22T02:53:47.185Z,42.20
2018-11-22T02:56:16.590Z,42.33
2018-11-22T02:58:43.107Z,42.93
2018-11-22T03:00:51.578Z,42.23
2018-11-22T03:03:05.640Z,40.53
2018-11-22T03:05:49.786Z,42.30
2018-11-22T03:10:54.097Z,41.07
2018-11-22T03:13:04.125Z,42.10
2018-11-22T03:18:25.360Z,42.73
2018-11-22T03:20:53.630Z,40.57
2018-11-22T03:23:20.139Z,42.23
2018-11-22T03:28:24.119Z,42.07
2018-11-22T03:30:44.972Z,41.90
2018-11-22T03:33:07.578Z,40.63
2018-11-22T03:35:37.803Z,40.23
2018-11-22T03:37:55.054Z,40.53
2018-11-22T03:40:33.699Z,41.57
2018-11-22T03:43:12.246Z,41.80
2018-11-22T03:45:23.334Z,40.40
2018-11-22T03:47:54.189Z,42.13
2018-11-22T03:53:20.460Z,42.07
2018-11-22T03:55:42.898Z,41.17
2018-11-22T03:58:02.534Z,40.83
2018-11-22T04:06:24.503Z,41.87
2018-11-22T04:08:50.989Z,41.53
2018-11-22T04:11:17.369Z,42.13
2018-11-22T04:13:40.716Z,39.60
2018-11-22T04:15:59.171Z,39.27
2018-11-22T04:18:16.693Z,41.87
2018-11-22T04:20:49.239Z,40.93
2018-11-22T04:23:11.495Z,41.70
2018-11-22T04:25:31.190Z,41.10
2018-11-22T04:28:01.903Z,42.73
2018-11-22T04:30:22.849Z,42.40
2018-11-22T04:33:01.703Z,41.90
2018-11-22T04:35:36.095Z,40.63
2018-11-22T04:37:48.590Z,41.57
2018-11-22T04:40:03.661Z,41.73
2018-11-22T04:42:16.148Z,41.77
2018-11-22T04:45:00.152Z,42.43
2018-11-22T04:47:48.101Z,41.70
2018-11-22T04:50:22.585Z,42.23
2018-11-22T04:53:08.534Z,41.47
2018-11-22T04:55:29.213Z,41.77
2018-11-22T04:57:50.242Z,42.03
2018-11-22T05:07:45.910Z,41.87
2018-11-22T05:09:59.198Z,43.00
2018-11-22T05:12:46.381Z,43.00
2018-11-22T05:15:09.794Z,41.93
2018-11-22T05:17:37.178Z,42.23
2018-11-22T05:20:05.589Z,44.03
2018-11-22T05:22:16.857Z,44.10
2018-11-22T05:24:47.863Z,44.37
2018-11-22T05:27:00.921Z,44.10
2018-11-22T05:29:47.149Z,43.97
2018-11-22T05:32:35.370Z,44.30
2018-11-22T05:34:59.062Z,43.87
2018-11-22T05:37:25.148Z,44.47
2018-11-22T05:39:43.724Z,45.23
2018-11-22T05:42:13.010Z,44.53
2018-11-22T05:45:05.802Z,44.97
2018-11-22T05:47:27.327Z,43.63
2018-11-22T05:49:48.688Z,45.30
2018-11-22T05:52:04.964Z,44.63
2018-11-22T05:54:24.196Z,45.87
2018-11-22T05:56:52.073Z,46.63
2018-11-22T05:59:31.013Z,46.63
2018-11-22T06:01:54.026Z,46.27
2018-11-22T06:06:37.782Z,47.70
2018-11-22T06:14:30.435Z,45.70
2018-11-22T06:16:47.691Z,46.00
2018-11-22T06:19:30.879Z,45.10
2018-11-22T06:22:01.144Z,44.40
2018-11-22T06:24:25.472Z,44.50
2018-11-22T06:29:37.364Z,44.83
2018-11-22T06:34:52.583Z,45.07
2018-11-22T06:37:15.507Z,44.63
2018-11-22T06:41:51.850Z,45.87
2018-11-22T06:44:13.854Z,46.30
2018-11-22T06:46:58.748Z,45.90
2018-11-22T06:49:37.854Z,45.70
2018-11-22T06:52:03.834Z,42.30
2018-11-22T06:54:18.209Z,44.57
2018-11-22T06:56:49.342Z,43.13
2018-11-22T06:59:09.739Z,43.23
2018-11-22T07:01:36.263Z,42.77
2018-11-22T07:04:02.979Z,45.27
2018-11-22T07:06:29.384Z,43.37
2018-11-22T07:09:05.350Z,44.93
2018-11-22T07:11:45.381Z,42.70
2018-11-22T07:14:04.725Z,42.83
2018-11-22T07:16:24.383Z,43.43
2018-11-22T07:18:48.258Z,44.37
2018-11-22T07:26:54.176Z,43.10
2018-11-22T07:34:00.538Z,43.27
2018-11-22T07:36:22.198Z,45.27
2018-11-22T07:41:36.291Z,44.43
2018-11-22T07:43:46.381Z,43.40
2018-11-22T07:45:54.533Z,43.07
2018-11-22T07:48:25.518Z,38.17
2018-11-22T07:55:53.712Z,32.20
2018-11-22T08:01:03.237Z,29.33
2018-11-22T08:03:21.345Z,29.53
2018-11-22T08:05:53.888Z,30.63
2018-11-22T08:08:20.507Z,32.27
2018-11-22T08:10:40.410Z,33.03
2018-11-22T08:13:08.853Z,32.07
2018-11-22T08:15:55.580Z,30.90
2018-11-22T08:18:17.530Z,33.17
2018-11-22T08:20:33.523Z,34.13
2018-11-22T08:25:48.842Z,34.57
2018-11-22T08:28:29.273Z,32.93
2018-11-22T08:30:49.515Z,33.90
2018-11-22T08:33:14.614Z,34.03
2018-11-22T08:35:46.123Z,34.10
2018-11-22T08:38:12.238Z,32.80
2018-11-22T08:40:48.006Z,34.13
2018-11-22T08:43:35.477Z,33.57
2018-11-22T08:45:56.950Z,34.67
2018-11-22T08:48:20.437Z,34.57
2018-11-22T08:53:28.671Z,34.43
2018-11-22T08:55:51.958Z,34.17
2018-11-22T08:58:12.384Z,33.23
2018-11-22T09:03:28.409Z,32.33
2018-11-22T09:05:53.450Z,35.67
2018-11-22T09:08:14.067Z,34.00
2018-11-22T09:10:39.150Z,33.33
2018-11-22T09:12:57.816Z,34.43
2018-11-22T09:15:23.413Z,34.53
2018-11-22T09:17:47.257Z,33.03
2018-11-22T09:20:12.157Z,34.27
2018-11-22T09:22:40.389Z,31.60
2018-11-22T09:27:32.647Z,33.90
2018-11-22T09:29:48.960Z,34.70
2018-11-22T09:32:31.823Z,34.03
2018-11-22T09:35:19.511Z,34.37
2018-11-22T09:37:50.849Z,32.67
2018-11-22T09:40:38.584Z,30.67
2018-11-22T09:43:10.044Z,33.83
2018-11-22T09:48:30.701Z,31.73
2018-11-22T09:50:56.088Z,30.57
2018-11-22T09:53:44.786Z,33.13
2018-11-22T09:59:40.729Z,31.57
2018-11-22T10:04:37.380Z,34.43
2018-11-22T10:07:02.301Z,32.63
2018-11-22T10:09:29.940Z,34.27
2018-11-22T10:12:11.201Z,30.70
2018-11-22T10:14:32.788Z,29.67
2018-11-22T10:17:02.174Z,31.20
2018-11-22T10:19:25.450Z,29.97
2018-11-22T10:21:49.448Z,30.47
2018-11-22T10:24:06.007Z,30.97
2018-11-22T10:31:49.758Z,30.10
2018-11-22T10:40:00.197Z,30.17
2018-11-22T10:42:37.980Z,30.17
2018-11-22T11:00:44.313Z,30.00
2018-11-22T11:03:10.906Z,31.00
2018-11-22T11:05:44.731Z,31.63
2018-11-22T11:08:34.910Z,34.63
2018-11-22T11:11:06.482Z,34.63
2018-11-22T11:13:34.654Z,34.93
2018-11-22T11:21:21.117Z,35.77
2018-11-22T11:23:57.275Z,36.23
2018-11-22T11:26:18.687Z,35.33
2018-11-22T11:34:19.900Z,35.07
2018-11-22T11:36:55.629Z,35.47
2018-11-22T11:39:28.877Z,35.63
2018-11-22T11:44:27.262Z,34.70
2018-11-22T11:46:50.024Z,49.43
2018-11-22T11:49:03.049Z,35.00
2018-11-22T11:51:34.257Z,34.50
2018-11-22T11:54:06.540Z,35.07
2018-11-22T12:01:46.759Z,33.00
2018-11-22T12:04:18.221Z,32.47
2018-11-22T12:07:09.662Z,19.77
2018-11-22T12:09:28.086Z,17.70
2018-11-22T12:11:36.033Z,18.87
2018-11-22T12:21:45.931Z,19.50
2018-11-22T12:24:14.036Z,19.20
2018-11-22T12:26:46.814Z,18.83
2018-11-22T12:28:55.796Z,17.90
2018-11-22T12:31:31.732Z,18.77
2018-11-22T12:34:20.395Z,18.60
2018-11-22T12:37:13.212Z,19.43
2018-11-22T12:45:37.432Z,18.77
2018-11-22T12:50:34.351Z,19.00
2018-11-22T12:53:33.124Z,18.57
2018-11-22T12:55:57.447Z,19.43
2018-11-22T12:58:33.816Z,20.07
2018-11-22T13:08:59.688Z,20.13
2018-11-22T13:11:34.253Z,19.43
2018-11-22T13:14:05.811Z,19.00
2018-11-22T13:16:41.618Z,19.40
2018-11-22T13:19:14.420Z,19.33
2018-11-22T13:21:35.581Z,18.73
2018-11-22T13:24:14.485Z,19.63
2018-11-22T13:26:50.299Z,18.67
2018-11-22T13:29:40.066Z,18.57
2018-11-22T13:35:23.847Z,19.30
2018-11-22T13:40:40.804Z,19.10
2018-11-22T13:43:12.116Z,18.60
2018-11-22T13:45:58.043Z,18.87
2018-11-22T13:48:14.803Z,19.67
2018-11-22T13:50:41.918Z,18.53
2018-11-22T13:52:59.180Z,20.77
2018-11-22T13:55:32.681Z,19.13
2018-11-22T13:57:55.187Z,18.87
2018-11-22T14:03:17.489Z,19.50
2018-11-22T14:05:36.786Z,18.97
2018-11-22T14:10:39.339Z,18.77
2018-11-22T14:13:00.706Z,17.67
2018-11-22T14:15:30.284Z,18.50
2018-11-22T14:18:24.903Z,18.33
2018-11-22T14:20:42.032Z,18.87
2018-11-22T14:22:55.404Z,18.70
2018-11-22T14:25:13.116Z,19.13
2018-11-22T14:28:00.642Z,18.07
2018-11-22T14:30:27.633Z,19.20
2018-11-22T14:32:54.461Z,18.23
2018-11-22T14:35:08.458Z,17.63
2018-11-22T14:40:27.178Z,18.23
2018-11-22T14:42:53.848Z,18.30
2018-11-22T14:45:32.932Z,17.57
2018-11-22T14:47:58.593Z,17.67
2018-11-22T14:50:58.810Z,18.23
2018-11-22T14:53:21.822Z,17.20
2018-11-22T14:55:33.757Z,17.93
2018-11-22T15:04:02.305Z,18.30
2018-11-22T15:06:30.147Z,17.90
2018-11-22T15:08:48.245Z,18.23
2018-11-22T15:11:06.763Z,17.30
2018-11-22T15:13:32.962Z,18.27
2018-11-22T15:16:03.842Z,17.77
2018-11-22T15:23:44.777Z,18.47
2018-11-22T15:26:03.602Z,18.27
2018-11-22T15:28:29.831Z,18.87
2018-11-22T15:30:49.875Z,19.00
2018-11-22T15:33:17.180Z,19.07
2018-11-22T15:38:26.141Z,19.37
2018-11-22T15:40:49.661Z,18.83
2018-11-22T15:43:07.943Z,19.63
2018-11-22T15:45:34.816Z,21.03
2018-11-22T15:47:50.981Z,20.70
2018-11-22T15:50:11.076Z,21.87
2018-11-22T15:52:38.899Z,22.77
2018-11-22T15:54:56.865Z,22.60
2018-11-22T15:57:25.803Z,23.77
2018-11-22T15:59:46.862Z,23.37
2018-11-22T16:02:10.125Z,23.63
2018-11-22T16:04:29.977Z,25.20
2018-11-22T16:06:45.802Z,25.27
2018-11-22T16:09:15.174Z,25.13
2018-11-22T16:11:36.144Z,24.77
2018-11-22T16:13:55.151Z,25.17
2018-11-22T16:16:16.444Z,25.10
2018-11-22T16:18:38.040Z,25.10
2018-11-22T16:21:07.376Z,24.67
2018-11-22T16:26:10.967Z,25.10
2018-11-22T16:28:45.009Z,26.03
2018-11-22T16:31:15.500Z,24.67
2018-11-22T16:33:34.367Z,24.93
2018-11-22T16:35:55.953Z,28.00
2018-11-22T16:38:18.817Z,25.80
2018-11-22T16:40:57.881Z,27.87
2018-11-22T16:43:14.801Z,26.00
2018-11-22T16:45:37.947Z,27.20
2018-11-22T16:50:16.143Z,26.53
2018-11-22T16:52:45.554Z,26.70
2018-11-22T16:55:10.252Z,26.13
2018-11-22T16:57:42.469Z,25.83
2018-11-22T17:00:03.893Z,27.87
2018-11-22T17:02:49.707Z,27.10
2018-11-22T17:05:30.499Z,26.47
2018-11-22T17:08:00.927Z,26.63
2018-11-22T17:13:21.851Z,27.17
2018-11-22T17:15:41.809Z,27.57
2018-11-22T17:18:34.661Z,28.83
2018-11-22T17:21:04.163Z,27.87
2018-11-22T17:28:38.803Z,27.63
2018-11-22T17:31:00.183Z,27.77
2018-11-22T17:33:19.217Z,28.63
2018-11-22T17:35:39.832Z,26.87
2018-11-22T17:40:53.815Z,27.33
2018-11-22T17:46:06.408Z,27.77
2018-11-22T17:48:25.970Z,27.73
2018-11-22T17:53:32.077Z,27.97
2018-11-22T17:55:50.614Z,28.70
2018-11-22T17:58:11.201Z,27.67
2018-11-22T18:00:44.679Z,27.97
2018-11-22T18:03:05.283Z,27.90
2018-11-22T18:05:52.555Z,28.13
2018-11-22T18:11:02.619Z,30.27
2018-11-22T18:13:28.671Z,28.97
2018-11-22T18:16:06.049Z,29.57
2018-11-22T18:18:23.920Z,28.97
2018-11-22T18:20:44.292Z,30.17
2018-11-22T18:23:11.723Z,29.00
2018-11-22T18:28:21.678Z,30.97
2018-11-22T18:30:42.457Z,29.53
2018-11-22T18:35:59.963Z,28.00
2018-11-22T18:38:45.270Z,30.00
2018-11-22T18:40:58.242Z,29.20
2018-11-22T18:43:09.830Z,30.33
2018-11-22T18:48:56.935Z,30.30
2018-11-22T18:51:21.611Z,28.73
2018-11-22T18:53:40.625Z,28.90
2018-11-22T19:00:54.344Z,30.07
2018-11-22T19:06:16.593Z,28.47
2018-11-22T19:08:47.515Z,28.73
2018-11-22T19:11:09.065Z,27.87
2018-11-22T19:13:33.950Z,28.83
2018-11-22T19:15:48.391Z,28.13
2018-11-22T19:20:45.233Z,29.03
2018-11-22T19:23:13.185Z,28.77
2018-11-22T19:27:49.765Z,29.00
2018-11-22T19:30:21.766Z,28.80
2018-11-22T19:32:42.726Z,27.97
2018-11-22T19:35:05.983Z,27.70
2018-11-22T19:40:22.087Z,27.00
2018-11-22T19:43:05.176Z,28.23
2018-11-22T19:45:39.417Z,27.50
2018-11-22T19:48:05.696Z,28.07
2018-11-22T19:50:41.923Z,27.43
2018-11-22T19:53:00.103Z,27.00
2018-11-22T19:55:21.821Z,28.20
2018-11-22T19:57:34.031Z,26.63
2018-11-22T20:00:06.392Z,27.87
2018-11-22T20:02:54.920Z,26.90
2018-11-22T20:13:49.211Z,28.43
2018-11-22T20:16:08.198Z,27.63
2018-11-22T20:18:28.801Z,26.73
2018-11-22T20:20:49.490Z,27.37
2018-11-22T20:26:02.893Z,29.57
2018-11-22T20:28:29.064Z,30.83
2018-11-22T20:30:47.968Z,28.80
2018-11-22T20:33:19.365Z,31.63
2018-11-22T20:36:04.609Z,31.13
2018-11-22T20:38:17.951Z,30.73
2018-11-22T20:40:44.818Z,29.53
2018-11-22T20:43:06.677Z,28.47
2018-11-22T20:45:41.088Z,28.10
2018-11-22T20:50:30.673Z,29.43
2018-11-22T20:52:55.036Z,27.90
2018-11-22T20:55:26.061Z,27.60
2018-11-22T20:57:52.981Z,27.30
2018-11-22T21:00:12.125Z,27.70
2018-11-22T21:02:44.377Z,28.13
2018-11-22T21:08:07.760Z,27.70
2018-11-22T21:10:33.436Z,26.60
2018-11-22T21:12:53.779Z,27.10
2018-11-22T21:17:57.798Z,28.17
2018-11-22T21:20:36.403Z,29.27
2018-11-22T21:22:57.239Z,27.50
2018-11-22T21:25:42.200Z,28.47
2018-11-22T21:28:01.544Z,28.17
2018-11-22T21:32:56.694Z,28.13
2018-11-22T21:35:26.168Z,29.67
2018-11-22T21:38:11.168Z,27.83
2018-11-22T21:40:58.974Z,27.63
2018-11-22T21:43:19.903Z,26.87
2018-11-22T21:45:40.293Z,28.40
2018-11-22T21:50:58.341Z,26.30
2018-11-22T21:56:03.835Z,27.27
2018-11-22T21:58:53.860Z,27.07
2018-11-22T22:04:20.579Z,27.30
2018-11-22T22:06:39.150Z,28.40
2018-11-22T22:08:47.465Z,29.37
2018-11-22T22:11:19.809Z,25.33
2018-11-22T22:19:16.973Z,27.70
2018-11-22T22:24:37.620Z,27.47
2018-11-22T22:31:31.735Z,27.57
2018-11-22T22:33:51.191Z,27.20
2018-11-22T22:36:25.312Z,27.43
2018-11-22T22:39:11.433Z,28.87
2018-11-22T22:41:20.601Z,27.07
2018-11-22T22:43:50.491Z,27.83
2018-11-22T22:46:45.086Z,27.37
2018-11-22T22:51:56.917Z,25.93
2018-11-22T22:54:19.298Z,27.57
2018-11-22T22:56:47.349Z,26.03
2018-11-22T22:59:11.841Z,27.67
2018-11-22T23:01:32.877Z,28.07
2018-11-22T23:03:52.905Z,27.80
2018-11-22T23:11:25.788Z,29.63
2018-11-22T23:16:52.348Z,28.43
2018-11-22T23:32:44.843Z,25.70
2018-11-22T23:35:15.819Z,26.07
2018-11-22T23:37:45.342Z,26.60
2018-11-22T23:42:44.670Z,25.80
2018-11-22T23:45:17.169Z,26.73
2018-11-22T23:47:41.153Z,27.33
2018-11-22T23:49:59.768Z,26.93
2018-11-22T23:55:13.484Z,27.07
2018-11-22T23:57:31.091Z,26.70
2018-11-22T23:59:56.592Z,27.10
